Time;durP1;ratioP1;P1;durP2;ratioP2;P2;SDS_P1;SDS_P2;PMS_P1;PMS_P2;Temp;Humidity;BMP_temperature;BMP_pressure;BME280_temperature;BME280_humidity;BME280_pressure;Samples;Min_cycle;Max_cycle;Signal;HPM_P1;HPM_P2
2022/04/07 00:02:13;;;;;;;15.52;2.90;;;9.90;99.90;;;;;;4994610;28;20291;-56
2022/04/07 00:04:39;;;;;;;19.00;2.88;;;9.90;99.90;;;;;;5006792;28;20071;-58
2022/04/07 00:07:04;;;;;;;14.93;2.63;;;9.90;99.90;;;;;;5004347;28;20037;-58
2022/04/07 00:09:30;;;;;;;14.77;3.45;;;9.90;99.90;;;;;;5001800;28;20037;-59
2022/04/07 00:11:56;;;;;;;13.95;2.53;;;9.90;99.90;;;;;;5000576;28;20037;-58
2022/04/07 00:14:22;;;;;;;13.32;2.75;;;9.80;99.90;;;;;;4991136;28;20505;-59
2022/04/07 00:16:47;;;;;;;13.00;2.40;;;9.80;99.90;;;;;;4998033;28;20041;-56
2022/04/07 00:19:13;;;;;;;11.13;2.03;;;9.80;99.90;;;;;;5015026;28;20679;-55
2022/04/07 00:21:41;;;;;;;11.25;2.58;;;9.80;99.90;;;;;;5015403;28;20100;-57
2022/04/07 00:24:07;;;;;;;17.95;2.55;;;9.80;99.90;;;;;;5009184;28;20102;-56
2022/04/07 00:26:34;;;;;;;13.82;3.50;;;9.80;99.90;;;;;;5012505;28;20037;-55
2022/04/07 00:29:03;;;;;;;17.70;3.60;;;9.80;99.90;;;;;;5004333;28;20045;-58
2022/04/07 00:31:38;;;;;;;17.15;3.10;;;9.80;99.90;;;;;;5005395;28;20041;-57
2022/04/07 00:34:04;;;;;;;21.58;4.25;;;9.70;99.90;;;;;;5003125;28;20073;-58
2022/04/07 00:36:31;;;;;;;18.98;3.38;;;9.80;99.90;;;;;;4993101;28;20128;-57
2022/04/07 00:38:56;;;;;;;18.33;3.42;;;9.70;99.90;;;;;;5010854;28;20045;-56
2022/04/07 00:41:22;;;;;;;16.33;3.25;;;9.70;99.90;;;;;;5016676;28;20034;-57
2022/04/07 00:43:52;;;;;;;15.35;3.30;;;9.70;99.90;;;;;;5010260;28;20050;-59
2022/04/07 00:46:18;;;;;;;19.70;4.57;;;9.80;99.90;;;;;;5011976;28;21484;-59
2022/04/07 00:48:44;;;;;;;18.23;4.43;;;9.70;99.90;;;;;;5015067;28;20037;-58
2022/04/07 00:51:09;;;;;;;21.55;4.72;;;9.70;99.90;;;;;;5013446;28;20034;-56
2022/04/07 00:53:35;;;;;;;21.83;4.47;;;9.70;99.90;;;;;;4998025;28;20764;-58
2022/04/07 00:56:01;;;;;;;19.58;3.53;;;9.80;99.90;;;;;;5014080;28;20095;-60
2022/04/07 00:58:33;;;;;;;21.15;4.07;;;9.70;99.90;;;;;;5013543;28;20049;-58
2022/04/07 01:00:59;;;;;;;24.88;5.55;;;9.70;99.90;;;;;;5005528;28;22118;-59
2022/04/07 01:03:28;;;;;;;21.52;3.88;;;9.70;99.90;;;;;;5013417;28;20472;-56
2022/04/07 01:05:54;;;;;;;25.02;6.80;;;9.70;99.90;;;;;;5002502;28;20103;-60
2022/04/07 01:08:20;;;;;;;23.83;4.93;;;9.70;99.90;;;;;;5020668;28;20038;-58
2022/04/07 01:10:47;;;;;;;22.55;5.00;;;9.60;99.90;;;;;;5005206;28;20070;-54
2022/04/07 01:13:13;;;;;;;27.88;5.75;;;9.60;99.90;;;;;;4991818;28;20056;-58
2022/04/07 01:15:39;;;;;;;25.17;4.50;;;9.60;99.90;;;;;;5009104;28;20053;-59
2022/04/07 01:18:05;;;;;;;25.92;4.68;;;9.60;99.90;;;;;;5014249;28;20044;-56
2022/04/07 01:20:31;;;;;;;24.58;4.00;;;9.60;99.90;;;;;;4997638;28;20406;-55
2022/04/07 01:22:58;;;;;;;22.73;4.60;;;9.60;99.90;;;;;;5013939;28;20555;-57
2022/04/07 01:25:27;;;;;;;27.98;4.55;;;9.60;99.90;;;;;;5010113;28;20502;-55
2022/04/07 01:27:54;;;;;;;23.05;4.68;;;9.60;99.90;;;;;;5010151;28;20112;-57
2022/04/07 01:30:20;;;;;;;24.95;5.78;;;9.60;99.90;;;;;;4990801;28;20497;-58
2022/04/07 01:32:56;;;;;;;29.85;5.40;;;9.60;99.90;;;;;;5010941;28;20125;-55
2022/04/07 01:35:23;;;;;;;28.88;5.07;;;9.60;99.90;;;;;;5022991;28;20119;-54
2022/04/07 01:37:50;;;;;;;21.02;4.38;;;9.60;99.90;;;;;;5005997;28;20124;-57
2022/04/07 01:40:21;;;;;;;28.05;5.38;;;9.60;99.90;;;;;;4997685;28;20042;-53
2022/04/07 01:42:48;;;;;;;24.02;4.75;;;9.60;99.90;;;;;;5017625;28;20131;-56
2022/04/07 01:45:14;;;;;;;26.20;5.13;;;9.60;99.90;;;;;;5011586;28;20060;-57
2022/04/07 01:47:42;;;;;;;21.80;4.38;;;9.60;99.90;;;;;;5015473;28;20398;-54
2022/04/07 01:50:10;;;;;;;32.03;5.95;;;9.60;99.90;;;;;;5011428;28;20037;-57
2022/04/07 01:52:37;;;;;;;35.00;5.38;;;9.60;99.90;;;;;;5005929;28;21153;-57
2022/04/07 01:55:04;;;;;;;22.05;4.15;;;9.60;99.90;;;;;;4997557;28;20044;-54
2022/04/07 01:57:31;;;;;;;27.88;6.38;;;9.60;99.90;;;;;;5012498;28;20482;-56
2022/04/07 01:59:58;;;;;;;25.38;4.57;;;9.60;99.90;;;;;;5007529;28;20072;-58
2022/04/07 02:02:24;;;;;;;22.50;5.50;;;9.60;99.90;;;;;;4991000;28;20120;-57
2022/04/07 02:05:00;;;;;;;28.55;5.78;;;9.60;99.90;;;;;;5013096;28;20041;-55
2022/04/07 02:07:31;;;;;;;24.23;5.22;;;9.60;99.90;;;;;;5015125;28;21445;-54
2022/04/07 02:09:58;;;;;;;19.95;4.45;;;9.60;99.90;;;;;;5000534;28;20045;-58
2022/04/07 02:12:29;;;;;;;35.67;5.93;;;9.60;99.90;;;;;;4995317;28;20522;-57
2022/04/07 02:14:55;;;;;;;28.23;5.45;;;9.60;99.90;;;;;;5011526;28;20528;-58
2022/04/07 02:17:22;;;;;;;27.83;6.22;;;9.60;99.90;;;;;;5011648;28;20054;-57
2022/04/07 02:19:57;;;;;;;29.52;5.18;;;9.60;99.90;;;;;;5018748;28;20218;-58
2022/04/07 02:22:23;;;;;;;27.25;4.97;;;9.50;99.90;;;;;;5007412;28;20111;-56
2022/04/07 02:24:49;;;;;;;23.55;5.90;;;9.50;99.90;;;;;;4995476;28;20042;-57
2022/04/07 02:27:16;;;;;;;21.17;4.32;;;9.60;99.90;;;;;;4994421;28;20083;-57
2022/04/07 02:29:42;;;;;;;32.58;5.18;;;9.60;99.90;;;;;;5019285;28;20383;-58
2022/04/07 02:32:09;;;;;;;26.83;4.90;;;9.60;99.90;;;;;;5014611;28;20511;-55
2022/04/07 02:34:35;;;;;;;26.67;6.03;;;9.60;99.90;;;;;;4997157;28;22491;-58
2022/04/07 02:37:01;;;;;;;25.85;5.32;;;9.60;99.90;;;;;;4996038;28;20042;-59
2022/04/07 02:39:27;;;;;;;21.30;5.30;;;9.60;99.90;;;;;;5014370;28;20329;-56
2022/04/07 02:41:53;;;;;;;27.15;4.93;;;9.60;99.90;;;;;;5001367;28;20295;-56
2022/04/07 02:44:20;;;;;;;29.20;5.05;;;9.60;99.90;;;;;;5019581;28;20044;-57
2022/04/07 02:46:46;;;;;;;22.38;4.70;;;9.60;99.90;;;;;;5013909;28;20045;-58
2022/04/07 02:49:11;;;;;;;24.45;4.78;;;9.60;99.90;;;;;;5008518;28;20530;-58
2022/04/07 02:51:37;;;;;;;19.23;4.53;;;9.60;99.90;;;;;;4996150;28;20160;-54
2022/04/07 02:54:03;;;;;;;25.27;4.30;;;9.60;99.90;;;;;;5012192;28;20041;-55
2022/04/07 02:56:29;;;;;;;23.88;5.68;;;9.60;99.90;;;;;;5015512;28;20367;-54
2022/04/07 02:58:56;;;;;;;17.27;4.25;;;9.60;99.90;;;;;;5012421;28;20036;-54
2022/04/07 03:01:21;;;;;;;21.67;4.32;;;9.60;99.90;;;;;;5007863;28;20041;-54
2022/04/07 03:03:49;;;;;;;21.55;4.32;;;9.60;99.90;;;;;;5016734;28;20387;-58
2022/04/07 03:06:15;;;;;;;22.13;4.68;;;9.60;99.90;;;;;;5006976;28;20042;-58
2022/04/07 03:08:41;;;;;;;24.30;5.80;;;9.60;99.90;;;;;;4998513;28;20124;-55
2022/04/07 03:11:08;;;;;;;27.33;4.35;;;9.60;99.90;;;;;;5009623;28;20131;-58
2022/04/07 03:13:36;;;;;;;27.38;5.35;;;9.60;99.90;;;;;;5001247;28;20041;-54
2022/04/07 03:16:03;;;;;;;27.27;4.57;;;9.60;99.90;;;;;;5012291;28;20120;-56
2022/04/07 03:18:28;;;;;;;25.40;5.88;;;9.60;99.90;;;;;;5007131;28;20148;-57
2022/04/07 03:20:54;;;;;;;26.42;5.07;;;9.60;99.90;;;;;;5010044;28;20128;-57
2022/04/07 03:23:20;;;;;;;32.97;5.13;;;9.70;99.90;;;;;;4992592;28;20045;-57
2022/04/07 03:25:46;;;;;;;30.23;6.45;;;9.70;99.90;;;;;;5010104;28;20095;-57
2022/04/07 03:28:12;;;;;;;28.27;6.25;;;9.70;99.90;;;;;;4995444;28;20057;-57
2022/04/07 03:30:38;;;;;;;27.38;5.57;;;9.70;99.90;;;;;;5013448;28;20037;-57
2022/04/07 03:33:06;;;;;;;24.23;4.90;;;9.70;99.90;;;;;;5011548;28;20124;-58
2022/04/07 03:35:32;;;;;;;28.75;5.65;;;9.70;99.90;;;;;;5010380;28;20132;-58
2022/04/07 03:37:58;;;;;;;25.48;5.47;;;9.70;99.90;;;;;;5016055;28;20033;-58
2022/04/07 03:40:25;;;;;;;28.20;6.53;;;9.70;99.90;;;;;;5016374;28;20041;-59
2022/04/07 03:42:51;;;;;;;23.02;5.60;;;9.70;99.90;;;;;;5013784;28;20049;-57
2022/04/07 03:45:18;;;;;;;22.60;5.30;;;9.70;99.90;;;;;;5017884;28;20056;-55
2022/04/07 03:47:44;;;;;;;26.48;6.15;;;9.70;99.90;;;;;;5010590;28;20057;-57
2022/04/07 03:50:10;;;;;;;21.88;4.63;;;9.80;99.90;;;;;;4998868;28;20124;-58
2022/04/07 03:52:36;;;;;;;30.88;6.60;;;9.70;99.90;;;;;;4994247;28;20083;-57
2022/04/07 03:55:04;;;;;;;27.45;4.95;;;9.70;99.90;;;;;;5005228;28;20061;-58
2022/04/07 03:57:30;;;;;;;24.50;6.25;;;9.70;99.90;;;;;;5014185;28;20638;-57
2022/04/07 03:59:55;;;;;;;25.15;5.43;;;9.70;99.90;;;;;;5007925;28;20132;-58
2022/04/07 04:02:21;;;;;;;32.70;5.57;;;9.70;99.90;;;;;;5007833;28;20122;-57
2022/04/07 04:04:47;;;;;;;33.08;6.32;;;9.60;99.90;;;;;;4997777;28;20072;-59
2022/04/07 04:07:13;;;;;;;28.52;5.93;;;9.60;99.90;;;;;;5019010;28;20038;-58
2022/04/07 04:09:38;;;;;;;30.08;5.65;;;9.60;99.90;;;;;;5014657;28;20182;-57
2022/04/07 04:12:05;;;;;;;30.50;6.70;;;9.50;99.90;;;;;;5012894;28;20288;-57
2022/04/07 04:14:31;;;;;;;36.38;6.65;;;9.50;99.90;;;;;;5009701;28;20533;-57
2022/04/07 04:16:56;;;;;;;37.33;8.10;;;9.50;99.90;;;;;;5016157;28;20056;-58
2022/04/07 04:19:22;;;;;;;32.15;6.47;;;9.50;99.90;;;;;;5018157;28;20045;-57
2022/04/07 04:21:49;;;;;;;31.98;6.38;;;9.40;99.90;;;;;;5018889;28;20044;-56
2022/04/07 04:24:14;;;;;;;31.25;5.90;;;9.40;99.90;;;;;;5017354;28;20319;-56
2022/04/07 04:26:40;;;;;;;41.35;8.98;;;9.40;99.90;;;;;;4997249;28;20410;-57
2022/04/07 04:29:06;;;;;;;38.53;7.47;;;9.40;99.90;;;;;;4994427;28;20045;-58
2022/04/07 04:31:31;;;;;;;39.17;6.88;;;9.40;99.90;;;;;;5010168;28;20292;-56
2022/04/07 04:33:57;;;;;;;39.08;6.88;;;9.40;99.90;;;;;;5001596;28;20098;-57
2022/04/07 04:36:23;;;;;;;38.03;8.82;;;9.50;99.90;;;;;;5014344;28;20044;-57
2022/04/07 04:38:49;;;;;;;27.75;5.97;;;9.40;99.90;;;;;;5015853;28;20103;-56
2022/04/07 04:41:15;;;;;;;32.28;6.95;;;9.40;99.90;;;;;;5015559;28;20072;-58
2022/04/07 04:43:41;;;;;;;34.65;7.38;;;9.40;99.90;;;;;;5019887;28;20046;-59
2022/04/07 04:46:07;;;;;;;33.65;6.95;;;9.40;99.90;;;;;;5020193;28;20049;-55
2022/04/07 04:48:34;;;;;;;34.47;7.45;;;9.30;99.90;;;;;;5012466;28;20073;-57
2022/04/07 04:50:59;;;;;;;38.13;7.38;;;9.30;99.90;;;;;;5001658;28;20067;-56
2022/04/07 04:53:25;;;;;;;31.77;6.85;;;9.30;99.90;;;;;;5013169;28;20288;-57
2022/04/07 04:55:51;;;;;;;39.47;8.52;;;9.30;99.90;;;;;;5020555;28;20088;-56
2022/04/07 04:58:17;;;;;;;37.28;6.93;;;9.30;99.90;;;;;;5017333;28;20120;-55
2022/04/07 05:00:43;;;;;;;39.03;6.80;;;9.30;99.90;;;;;;5012181;28;20393;-58
2022/04/07 05:03:09;;;;;;;23.75;5.25;;;9.20;99.90;;;;;;5018314;28;20059;-58
2022/04/07 05:05:35;;;;;;;20.33;4.82;;;9.10;99.90;;;;;;4999317;28;20126;-58
2022/04/07 05:08:01;;;;;;;22.65;4.13;;;9.00;99.90;;;;;;5022234;28;20041;-59
2022/04/07 05:10:26;;;;;;;20.15;3.55;;;8.90;99.90;;;;;;5020566;28;20045;-58
2022/04/07 05:12:53;;;;;;;20.98;3.72;;;8.70;99.90;;;;;;5012999;28;20041;-58
2022/04/07 05:15:19;;;;;;;21.73;4.43;;;8.60;99.90;;;;;;5018545;28;20037;-57
2022/04/07 05:17:52;;;;;;;17.65;2.90;;;8.50;99.90;;;;;;5003360;28;20437;-56
2022/04/07 05:20:18;;;;;;;14.60;2.40;;;8.20;99.90;;;;;;5000424;28;20447;-58
2022/04/07 05:22:44;;;;;;;10.70;2.35;;;8.10;99.90;;;;;;5021741;28;20049;-57
2022/04/07 05:25:10;;;;;;;9.52;3.55;;;8.00;99.90;;;;;;5018697;28;20041;-57
2022/04/07 05:27:37;;;;;;;7.50;1.20;;;7.80;99.90;;;;;;5000951;28;20171;-57
2022/04/07 05:30:04;;;;;;;12.60;2.35;;;7.70;99.90;;;;;;5020753;28;20065;-58
2022/04/07 05:32:30;;;;;;;9.02;1.70;;;7.60;99.90;;;;;;5007695;28;20119;-56
2022/04/07 05:34:56;;;;;;;6.45;1.23;;;7.50;99.90;;;;;;5012269;28;20049;-55
2022/04/07 05:37:22;;;;;;;10.38;1.55;;;7.40;99.90;;;;;;4999320;28;20053;-58
2022/04/07 05:39:47;;;;;;;9.70;1.80;;;7.40;99.90;;;;;;5019313;28;20129;-56
2022/04/07 05:42:13;;;;;;;8.90;2.00;;;7.40;99.90;;;;;;5022584;28;20482;-55
2022/04/07 05:44:39;;;;;;;9.25;1.85;;;7.30;99.90;;;;;;5009339;28;20041;-56
2022/04/07 05:47:05;;;;;;;10.68;1.63;;;7.30;99.90;;;;;;5027940;28;20041;-57
2022/04/07 05:49:30;;;;;;;8.32;2.30;;;7.30;99.90;;;;;;5015041;28;20120;-58
2022/04/07 05:52:00;;;;;;;10.13;1.73;;;7.20;99.90;;;;;;5020684;28;20136;-58
2022/04/07 05:54:27;;;;;;;5.30;1.67;;;7.20;99.90;;;;;;4996103;28;20296;-57
2022/04/07 05:56:53;;;;;;;9.80;1.73;;;7.20;99.90;;;;;;5017238;28;20545;-57
2022/04/07 05:59:19;;;;;;;11.15;1.70;;;7.10;99.90;;;;;;5017250;28;20324;-58
2022/04/07 06:01:44;;;;;;;8.20;1.70;;;7.00;99.90;;;;;;5000951;28;20049;-57
2022/04/07 06:04:10;;;;;;;12.70;2.10;;;7.00;99.90;;;;;;4997128;28;20478;-56
2022/04/07 06:06:36;;;;;;;11.95;1.92;;;6.90;99.90;;;;;;5007035;28;20044;-57
2022/04/07 06:09:02;;;;;;;8.60;1.45;;;6.90;99.90;;;;;;5018177;28;20513;-57
2022/04/07 06:11:28;;;;;;;7.53;1.02;;;6.90;99.90;;;;;;5016436;28;20056;-57
2022/04/07 06:13:54;;;;;;;9.68;1.42;;;6.90;99.90;;;;;;5017918;28;20046;-55
2022/04/07 06:16:20;;;;;;;4.00;0.98;;;6.90;99.90;;;;;;5014949;28;20052;-57
2022/04/07 06:18:46;;;;;;;4.78;1.10;;;6.90;99.90;;;;;;5032427;28;20398;-55
2022/04/07 06:21:11;;;;;;;6.10;0.98;;;6.90;99.90;;;;;;5013410;28;20145;-57
2022/04/07 06:23:37;;;;;;;10.95;2.25;;;6.90;99.90;;;;;;5010026;28;20041;-53
2022/04/07 06:26:03;;;;;;;7.20;1.17;;;6.90;99.90;;;;;;5014727;28;20033;-56
2022/04/07 06:28:28;;;;;;;9.55;1.48;;;6.90;99.90;;;;;;4990133;28;20056;-57
2022/04/07 06:30:54;;;;;;;5.47;1.40;;;6.90;99.90;;;;;;4997845;28;20442;-58
2022/04/07 06:33:24;;;;;;;5.72;1.02;;;6.90;99.90;;;;;;5011855;28;20044;-54
2022/04/07 06:35:51;;;;;;;7.22;1.25;;;6.80;99.90;;;;;;5001172;28;20037;-56
2022/04/07 06:38:16;;;;;;;3.80;1.20;;;6.90;99.90;;;;;;5018757;28;20136;-56
2022/04/07 06:40:42;;;;;;;3.08;1.02;;;6.90;99.90;;;;;;5011765;28;20654;-56
2022/04/07 06:43:08;;;;;;;7.05;1.38;;;6.90;99.90;;;;;;5009315;28;20052;-58
2022/04/07 06:45:34;;;;;;;6.85;2.00;;;6.90;99.90;;;;;;5015318;28;20033;-58
2022/04/07 06:47:59;;;;;;;10.75;1.13;;;6.90;99.90;;;;;;5017028;28;20506;-58
2022/04/07 06:50:26;;;;;;;5.85;1.73;;;7.00;99.90;;;;;;5020026;28;20522;-58
2022/04/07 06:52:53;;;;;;;4.70;1.35;;;7.00;99.90;;;;;;5017646;28;20122;-59
2022/04/07 06:55:18;;;;;;;4.82;1.33;;;7.00;99.90;;;;;;5012142;28;20439;-56
2022/04/07 06:57:51;;;;;;;11.98;1.85;;;7.00;99.90;;;;;;5017966;28;20046;-55
2022/04/07 07:00:18;;;;;;;6.65;1.30;;;7.00;99.90;;;;;;5011657;28;20053;-58
2022/04/07 07:02:46;;;;;;;8.50;2.42;;;7.00;99.90;;;;;;5015450;28;20046;-58
2022/04/07 07:05:12;;;;;;;6.45;1.23;;;7.00;99.90;;;;;;5015453;28;20049;-57
2022/04/07 07:07:37;;;;;;;8.73;1.60;;;7.10;99.90;;;;;;5004860;28;20041;-57
2022/04/07 07:10:04;;;;;;;4.85;0.98;;;7.10;99.90;;;;;;5002313;28;20044;-57
2022/04/07 07:12:29;;;;;;;8.85;1.45;;;7.10;99.90;;;;;;5018848;28;20048;-59
2022/04/07 07:14:55;;;;;;;8.07;1.30;;;7.10;99.90;;;;;;4983368;28;20045;-59
2022/04/07 07:17:21;;;;;;;7.60;1.23;;;7.10;99.90;;;;;;5012634;28;20206;-59
2022/04/07 07:19:46;;;;;;;8.63;1.92;;;7.10;99.90;;;;;;5004082;28;20041;-57
2022/04/07 07:22:12;;;;;;;9.50;1.50;;;7.20;99.90;;;;;;5010187;28;20041;-56
2022/04/07 07:24:38;;;;;;;8.57;1.30;;;7.20;99.90;;;;;;5015417;28;20049;-58
2022/04/07 07:27:04;;;;;;;11.20;1.95;;;7.30;99.90;;;;;;5000820;28;20037;-57
2022/04/07 07:29:29;;;;;;;6.65;1.25;;;7.20;99.90;;;;;;4999155;28;20053;-59
2022/04/07 07:31:55;;;;;;;8.68;1.40;;;7.20;99.90;;;;;;4993892;28;20053;-59
2022/04/07 07:34:21;;;;;;;7.93;1.70;;;7.30;99.90;;;;;;4994270;28;20053;-56
2022/04/07 07:36:46;;;;;;;7.47;1.70;;;7.40;99.90;;;;;;4995141;28;20042;-57
2022/04/07 07:39:12;;;;;;;6.32;1.40;;;7.60;99.90;;;;;;5000491;28;20045;-58
2022/04/07 07:41:39;;;;;;;10.80;1.67;;;7.70;99.90;;;;;;4994312;28;20103;-55
2022/04/07 07:44:05;;;;;;;10.20;1.52;;;7.90;99.90;;;;;;5012793;28;20087;-57
2022/04/07 07:46:33;;;;;;;7.95;1.73;;;8.10;99.90;;;;;;5022401;28;20049;-56
2022/04/07 07:48:59;;;;;;;7.93;1.70;;;8.20;99.90;;;;;;5012444;28;20037;-57
2022/04/07 07:51:25;;;;;;;12.52;1.98;;;8.30;99.90;;;;;;5011423;28;20111;-59
2022/04/07 07:53:50;;;;;;;5.65;1.60;;;8.40;99.90;;;;;;5008736;28;20146;-55
2022/04/07 07:56:16;;;;;;;9.38;1.35;;;8.50;99.90;;;;;;5025600;28;20489;-57
2022/04/07 07:58:42;;;;;;;6.93;1.42;;;8.60;99.90;;;;;;5001857;28;22205;-57
2022/04/07 08:01:07;;;;;;;12.40;1.83;;;8.70;99.90;;;;;;5017309;28;20502;-57
2022/04/07 08:03:33;;;;;;;5.55;1.20;;;8.80;99.90;;;;;;5020058;28;20280;-56
2022/04/07 08:05:59;;;;;;;8.57;1.48;;;8.90;99.90;;;;;;4986520;28;20096;-57
2022/04/07 08:08:25;;;;;;;10.90;1.95;;;9.00;99.90;;;;;;5016687;28;20060;-57
2022/04/07 08:10:51;;;;;;;7.63;2.53;;;9.10;99.90;;;;;;5013549;28;20329;-56
2022/04/07 08:13:16;;;;;;;9.55;1.63;;;9.20;99.90;;;;;;4999301;28;20487;-59
2022/04/07 08:15:42;;;;;;;7.63;2.00;;;9.20;99.90;;;;;;5009372;28;20519;-58
2022/04/07 08:18:08;;;;;;;8.40;1.80;;;9.30;99.90;;;;;;5012964;28;20053;-57
2022/04/07 08:20:34;;;;;;;8.32;1.60;;;9.50;99.90;;;;;;5009530;28;20064;-55
2022/04/07 08:23:00;;;;;;;12.55;1.73;;;9.60;99.90;;;;;;5014911;28;20045;-57
2022/04/07 08:25:25;;;;;;;6.03;1.27;;;9.50;99.90;;;;;;5019132;28;21282;-57
2022/04/07 08:27:51;;;;;;;7.45;1.63;;;9.60;99.90;;;;;;4998633;28;20623;-57
2022/04/07 08:30:17;;;;;;;7.10;1.90;;;9.60;99.90;;;;;;5009609;28;20034;-57
2022/04/07 08:32:43;;;;;;;7.10;1.40;;;9.70;99.90;;;;;;5014057;28;20107;-57
2022/04/07 08:35:11;;;;;;;8.45;1.63;;;9.70;99.90;;;;;;5012638;28;20049;-57
2022/04/07 08:37:37;;;;;;;10.50;1.80;;;9.60;99.90;;;;;;5010946;28;20042;-57
2022/04/07 08:40:06;;;;;;;12.85;2.85;;;9.60;99.90;;;;;;4983388;28;20053;-56
2022/04/07 08:42:33;;;;;;;10.38;2.45;;;9.70;99.90;;;;;;4982154;28;20156;-54
2022/04/07 08:44:59;;;;;;;12.48;1.80;;;9.70;99.90;;;;;;4999775;28;20045;-55
2022/04/07 08:47:25;;;;;;;11.55;2.55;;;9.70;99.90;;;;;;5007196;28;20371;-57
2022/04/07 08:49:51;;;;;;;14.60;1.98;;;9.70;99.90;;;;;;4992051;28;20072;-58
2022/04/07 08:52:18;;;;;;;6.80;2.00;;;9.70;99.90;;;;;;5009258;28;20120;-57
2022/04/07 08:54:47;;;;;;;5.32;1.50;;;9.80;99.90;;;;;;5008252;28;20123;-58
2022/04/07 08:57:14;;;;;;;6.22;1.85;;;9.90;99.90;;;;;;5011360;28;20044;-59
2022/04/07 08:59:40;;;;;;;13.52;2.00;;;10.00;99.90;;;;;;5006252;28;20379;-57
2022/04/07 09:02:08;;;;;;;11.43;2.40;;;10.00;99.90;;;;;;5006737;28;20119;-56
2022/04/07 09:04:38;;;;;;;9.90;2.40;;;10.20;99.90;;;;;;4983377;28;20076;-57
2022/04/07 09:07:04;;;;;;;10.73;2.10;;;10.10;99.90;;;;;;5014637;28;20045;-56
2022/04/07 09:09:36;;;;;;;10.52;2.30;;;10.10;99.90;;;;;;5014698;28;20041;-58
2022/04/07 09:12:02;;;;;;;11.23;2.15;;;10.10;99.90;;;;;;5009298;28;20180;-59
2022/04/07 09:14:38;;;;;;;9.38;2.20;;;10.10;99.90;;;;;;5010103;28;20056;-56
2022/04/07 09:17:04;;;;;;;11.65;1.95;;;10.20;99.90;;;;;;5011896;28;20113;-55
2022/04/07 09:19:31;;;;;;;13.60;2.70;;;10.10;99.90;;;;;;4999549;28;20049;-58
2022/04/07 09:22:11;;;;;;;9.63;2.20;;;10.10;99.90;;;;;;5012987;28;20490;-57
2022/04/07 09:24:38;;;;;;;9.48;2.42;;;10.10;99.90;;;;;;5013224;28;20045;-58
2022/04/07 09:27:06;;;;;;;11.57;2.28;;;10.00;99.90;;;;;;5016396;28;20095;-57
2022/04/07 09:29:44;;;;;;;16.65;3.67;;;10.00;99.90;;;;;;5000109;28;20095;-57
2022/04/07 09:32:19;;;;;;;16.13;3.00;;;10.00;99.90;;;;;;5010637;28;20133;-55
2022/04/07 09:34:46;;;;;;;14.45;3.45;;;10.00;99.90;;;;;;5007876;28;20071;-59
2022/04/07 09:37:13;;;;;;;17.23;3.40;;;10.00;99.90;;;;;;4989984;28;20052;-58
2022/04/07 09:39:40;;;;;;;13.05;2.58;;;10.00;99.90;;;;;;5009405;28;20402;-57
2022/04/07 09:42:35;;;;;;;10.13;2.78;;;9.90;99.90;;;;;;5008632;28;20045;-57
2022/04/07 09:45:03;;;;;;;10.88;2.10;;;10.00;99.90;;;;;;4989550;28;20053;-57
2022/04/07 09:47:43;;;;;;;10.98;2.75;;;10.00;99.90;;;;;;5012066;28;20382;-53
2022/04/07 09:50:23;;;;;;;21.70;4.53;;;10.00;99.90;;;;;;5026003;28;20060;-56
2022/04/07 09:53:05;;;;;;;18.48;4.22;;;10.10;99.90;;;;;;5013492;28;20060;-57
2022/04/07 09:55:36;;;;;;;10.52;2.05;;;10.20;99.90;;;;;;5015156;28;20045;-56
2022/04/07 09:58:04;;;;;;;10.68;2.40;;;10.10;99.90;;;;;;5000107;28;20054;-57
2022/04/07 10:00:30;;;;;;;13.80;2.35;;;10.00;99.90;;;;;;5020966;28;20192;-55
2022/04/07 10:02:57;;;;;;;11.55;2.00;;;9.80;99.90;;;;;;5021341;28;20033;-57
2022/04/07 10:05:26;;;;;;;11.10;2.67;;;9.70;99.90;;;;;;5017951;28;20091;-58
2022/04/07 10:07:52;;;;;;;13.65;3.20;;;9.60;99.90;;;;;;5008753;28;20370;-56
2022/04/07 10:10:18;;;;;;;12.77;2.33;;;9.40;99.90;;;;;;4990790;28;20069;-57
2022/04/07 10:12:47;;;;;;;9.52;2.13;;;9.20;99.90;;;;;;4996017;28;20025;-59
2022/04/07 10:15:14;;;;;;;11.95;2.55;;;9.10;99.90;;;;;;5015448;28;20058;-56
2022/04/07 10:17:40;;;;;;;12.98;2.40;;;9.00;99.90;;;;;;5007030;28;20506;-55
2022/04/07 10:20:09;;;;;;;17.13;4.53;;;9.10;99.90;;;;;;5013916;28;20042;-55
2022/04/07 10:22:53;;;;;;;12.70;2.33;;;9.10;99.90;;;;;;4998505;28;20168;-55
2022/04/07 10:25:22;;;;;;;17.17;2.92;;;9.30;99.90;;;;;;5017436;28;20041;-57
2022/04/07 10:27:57;;;;;;;13.38;2.92;;;9.40;99.90;;;;;;4999155;28;20422;-56
2022/04/07 10:30:23;;;;;;;17.63;3.65;;;9.50;99.90;;;;;;5015995;28;20049;-57
2022/04/07 10:32:52;;;;;;;12.05;2.72;;;9.50;99.90;;;;;;5017776;28;20046;-59
2022/04/07 10:35:33;;;;;;;12.80;3.17;;;9.60;99.90;;;;;;5001171;28;20041;-58
2022/04/07 10:38:06;;;;;;;16.80;2.88;;;9.70;99.90;;;;;;4997713;28;20069;-57
2022/04/07 10:40:51;;;;;;;19.33;3.15;;;9.60;99.90;;;;;;5031691;28;20935;-57
2022/04/07 10:43:22;;;;;;;17.27;4.45;;;9.50;99.90;;;;;;5017164;28;20077;-57
2022/04/07 10:46:09;;;;;;;17.90;3.75;;;9.50;99.90;;;;;;4994116;28;20053;-60
2022/04/07 10:48:44;;;;;;;12.75;2.30;;;9.40;99.90;;;;;;5014912;28;20042;-58
2022/04/07 10:51:11;;;;;;;15.93;2.63;;;9.30;99.90;;;;;;4997389;28;20188;-58
2022/04/07 10:53:53;;;;;;;19.73;3.00;;;9.40;99.90;;;;;;5013618;28;20581;-57
2022/04/07 10:56:32;;;;;;;11.98;2.50;;;9.60;99.90;;;;;;5018994;28;20048;-57
2022/04/07 10:59:17;;;;;;;12.25;4.32;;;9.80;99.90;;;;;;5010954;28;20049;-56
2022/04/07 11:01:43;;;;;;;15.55;3.88;;;10.10;99.90;;;;;;5014890;28;20041;-56
2022/04/07 11:04:20;;;;;;;13.70;2.97;;;10.40;99.90;;;;;;5014603;28;20360;-56
2022/04/07 11:07:05;;;;;;;17.05;3.63;;;10.60;99.90;;;;;;5002465;28;20405;-56
2022/04/07 11:09:55;;;;;;;14.02;2.95;;;10.50;99.90;;;;;;4991470;28;20117;-55
2022/04/07 11:12:34;;;;;;;15.63;2.85;;;10.30;99.90;;;;;;5022402;28;20041;-55
2022/04/07 11:15:03;;;;;;;17.73;2.80;;;10.30;99.90;;;;;;5017029;28;20073;-55
2022/04/07 11:17:44;;;;;;;15.35;3.33;;;10.20;99.90;;;;;;5015020;28;20682;-56
2022/04/07 11:20:16;;;;;;;12.18;2.42;;;10.20;99.90;;;;;;5011860;28;20096;-57
2022/04/07 11:22:49;;;;;;;16.70;3.30;;;10.20;99.90;;;;;;5021262;28;20046;-57
2022/04/07 11:25:32;;;;;;;12.65;2.65;;;10.20;99.90;;;;;;5012976;28;20088;-57
2022/04/07 11:28:18;;;;;;;15.68;2.97;;;10.30;99.90;;;;;;5021966;28;20050;-56
2022/04/07 11:30:47;;;;;;;19.35;3.08;;;10.40;99.90;;;;;;5021047;28;20048;-60
2022/04/07 11:33:27;;;;;;;9.07;2.78;;;10.50;99.90;;;;;;5023935;28;20640;-57
2022/04/07 11:36:07;;;;;;;16.30;2.55;;;10.60;99.90;;;;;;5012918;28;20132;-57
2022/04/07 11:38:37;;;;;;;15.35;4.05;;;10.60;99.90;;;;;;5012629;28;20054;-54
2022/04/07 11:41:11;;;;;;;13.73;3.40;;;10.70;99.90;;;;;;5014470;28;20038;-59
2022/04/07 11:43:42;;;;;;;11.52;2.53;;;10.90;99.90;;;;;;5016649;28;20041;-55
2022/04/07 11:46:08;;;;;;;12.80;2.63;;;10.90;99.90;;;;;;5042000;22;20673;-62
2022/04/07 11:48:35;;;;;;;16.23;3.30;;;11.00;99.90;;;;;;5051131;28;20045;-64
2022/04/07 11:51:12;;;;;;;14.07;2.67;;;11.10;99.90;;;;;;5036363;28;20037;-70
2022/04/07 11:53:39;;;;;;;15.50;3.20;;;11.30;99.90;;;;;;5030515;28;20037;-63
2022/04/07 11:56:12;;;;;;;15.95;3.63;;;11.30;98.50;;;;;;5001594;28;20047;-64
2022/04/07 11:58:38;;;;;;;21.00;4.17;;;11.30;98.70;;;;;;5032494;28;20133;-62
2022/04/07 12:01:19;;;;;;;14.10;2.45;;;11.20;98.50;;;;;;5017035;28;20349;-67
2022/04/07 12:03:49;;;;;;;14.18;2.78;;;10.70;98.50;;;;;;5010522;28;20068;-63
2022/04/07 12:06:15;;;;;;;13.77;3.13;;;10.30;99.90;;;;;;5026640;28;20493;-69
2022/04/07 12:08:41;;;;;;;10.25;2.17;;;9.70;99.90;;;;;;5014440;28;20041;-66
2022/04/07 12:11:07;;;;;;;15.43;2.70;;;9.40;99.90;;;;;;5026121;28;20044;-65
2022/04/07 12:13:34;;;;;;;9.32;1.70;;;9.10;99.90;;;;;;5036268;28;20408;-72
2022/04/07 12:16:01;;;;;;;4.55;1.20;;;8.80;99.90;;;;;;5021983;28;20068;-68
2022/04/07 12:18:29;;;;;;;7.07;1.10;;;8.40;99.90;;;;;;5009142;28;20068;-63
2022/04/07 12:21:00;;;;;;;11.43;2.47;;;8.20;99.90;;;;;;5046891;28;20098;-65
2022/04/07 12:23:27;;;;;;;11.65;1.95;;;8.30;99.90;;;;;;5025740;28;20064;-64
2022/04/07 12:26:01;;;;;;;9.82;2.05;;;8.80;99.90;;;;;;5029949;28;20051;-65
2022/04/07 12:28:39;;;;;;;12.18;2.05;;;9.30;99.90;;;;;;5024347;28;20067;-65
2022/04/07 12:31:22;;;;;;;11.70;2.33;;;9.60;99.90;;;;;;5015795;28;20098;-64
2022/04/07 12:34:07;;;;;;;14.50;2.97;;;9.90;99.90;;;;;;5046627;28;20098;-69
2022/04/07 12:36:35;;;;;;;16.55;3.10;;;10.00;99.90;;;;;;5010931;28;20072;-67
2022/04/07 12:39:15;;;;;;;17.33;3.20;;;9.90;99.90;;;;;;5015755;28;20132;-69
2022/04/07 12:41:51;;;;;;;24.13;3.78;;;9.90;99.90;;;;;;5014833;28;20543;-69
2022/04/07 12:44:22;;;;;;;20.27;3.75;;;9.80;99.90;;;;;;5008557;28;20040;-64
2022/04/07 12:46:53;;;;;;;17.52;5.18;;;9.60;99.90;;;;;;5040624;28;20079;-64
2022/04/07 12:49:27;;;;;;;12.27;3.72;;;9.60;99.90;;;;;;5050348;28;20509;-66
2022/04/07 12:52:35;;;;;;;11.25;2.85;;;9.60;99.90;;;;;;5029169;28;20040;-70
2022/04/07 12:55:04;;;;;;;9.70;2.42;;;9.50;99.90;;;;;;4995440;28;20048;-65